CPX254 Details

Departure: Princess Juliana International Airport (TNCM)
Arrival: Miami International Airport (KMIA) at N/A
Route: PJM B520 STT RTE6 SJU ACONY Y308 FOWEE FLIPR6
Notes:


Current Weather Information
TNCM 251100Z 09007KT 050V130 9999 SCT018 29/24 Q1017 A3005 NOSIG RMK HZ ALQDS
KMIA 251053Z 00000KT 10SM FEW025 SCT250 27/24 A2991 RMK AO2 SLP129 CB DSNT SW T02670244